Time;durP1;ratioP1;P1;durP2;ratioP2;P2;SDS_P1;SDS_P2;PMS_P1;PMS_P2;Temp;Humidity;BMP_temperature;BMP_pressure;BME280_temperature;BME280_humidity;BME280_pressure;Samples;Min_cycle;Max_cycle;Signal;HPM_P1;HPM_P2
2023/12/14 00:01:33;;;;;;;9.35;2.25;;;;;;;1.93;100.00;100723.88;5092782;28;20031;-89
2023/12/14 00:03:59;;;;;;;5.88;2.13;;;;;;;1.85;100.00;100716.38;5092743;28;20081;-88
2023/12/14 00:06:24;;;;;;;9.77;2.42;;;;;;;1.84;100.00;100713.84;5092873;28;20028;-89
2023/12/14 00:08:49;;;;;;;4.07;1.90;;;;;;;1.81;100.00;100719.00;5093277;28;20478;-87
2023/12/14 00:11:15;;;;;;;4.43;1.55;;;;;;;1.78;100.00;100724.97;5093252;28;20466;-87
2023/12/14 00:13:40;;;;;;;5.63;2.30;;;;;;;1.69;100.00;100732.75;5092051;28;20119;-87
2023/12/14 00:16:07;;;;;;;2.97;1.50;;;;;;;1.57;100.00;100731.25;5092953;28;20056;-87
2023/12/14 00:18:32;;;;;;;6.30;1.98;;;;;;;1.61;100.00;100740.50;5093068;28;20085;-87
2023/12/14 00:20:58;;;;;;;6.43;2.10;;;;;;;1.47;100.00;100744.97;5091537;28;20123;-87
2023/12/14 00:23:23;;;;;;;4.95;2.20;;;;;;;1.45;100.00;100759.41;5093081;28;20024;-87
2023/12/14 00:25:49;;;;;;;7.93;3.30;;;;;;;1.43;100.00;100753.50;5092693;28;20039;-86
2023/12/14 00:28:14;;;;;;;3.47;1.80;;;;;;;1.44;100.00;100762.78;5092862;28;20024;-88
2023/12/14 00:30:40;;;;;;;3.58;1.85;;;;;;;1.38;100.00;100762.91;5093042;28;20028;-87
2023/12/14 00:33:05;;;;;;;5.13;1.98;;;;;;;1.44;100.00;100770.44;5091091;28;20111;-86
2023/12/14 00:35:30;;;;;;;6.57;2.17;;;;;;;1.41;100.00;100762.84;5092545;28;20023;-87
2023/12/14 00:37:56;;;;;;;3.65;1.77;;;;;;;1.40;100.00;100764.56;5092772;28;20489;-87
2023/12/14 00:40:21;;;;;;;7.65;1.83;;;;;;;1.47;100.00;100760.22;5092718;28;20176;-87
2023/12/14 00:42:47;;;;;;;5.53;2.10;;;;;;;1.44;100.00;100753.50;5092563;28;20035;-87
2023/12/14 00:45:12;;;;;;;6.75;1.85;;;;;;;1.33;100.00;100757.03;5092500;28;20303;-87
2023/12/14 00:47:37;;;;;;;5.55;2.50;;;;;;;1.36;100.00;100762.91;5092237;28;20039;-87
2023/12/14 00:50:03;;;;;;;5.90;2.10;;;;;;;1.32;100.00;100770.59;5092479;28;20024;-87
2023/12/14 00:52:28;;;;;;;7.93;3.67;;;;;;;1.34;100.00;100772.28;5092147;28;20028;-87
2023/12/14 00:54:54;;;;;;;7.40;2.20;;;;;;;1.31;100.00;100763.84;5092182;28;20114;-88
2023/12/14 00:57:19;;;;;;;10.10;2.60;;;;;;;1.44;100.00;100760.25;5092265;28;20059;-87
2023/12/14 00:59:45;;;;;;;6.50;3.22;;;;;;;1.39;100.00;100767.13;5092454;28;20463;-88
2023/12/14 01:02:10;;;;;;;6.97;2.22;;;;;;;1.25;100.00;100765.63;5092278;28;20028;-88
2023/12/14 01:04:35;;;;;;;7.50;3.00;;;;;;;1.28;100.00;100769.81;5091663;28;20020;-88
2023/12/14 01:07:01;;;;;;;4.80;2.47;;;;;;;1.24;100.00;100776.66;5091635;28;20074;-87
2023/12/14 01:09:26;;;;;;;6.30;2.40;;;;;;;1.16;100.00;100777.63;5091399;28;20028;-87
2023/12/14 01:11:51;;;;;;;6.57;2.47;;;;;;;1.11;100.00;100785.28;5091993;28;20028;-87
2023/12/14 01:14:17;;;;;;;3.85;2.40;;;;;;;1.08;100.00;100784.50;5091824;28;20024;-87
2023/12/14 01:16:42;;;;;;;10.45;3.45;;;;;;;1.11;100.00;100789.53;5091396;28;20657;-88
2023/12/14 01:19:07;;;;;;;5.88;2.38;;;;;;;1.08;100.00;100785.34;5091438;28;20116;-87
2023/12/14 01:21:33;;;;;;;4.03;2.10;;;;;;;1.07;100.00;100770.94;5091894;28;20466;-87
2023/12/14 01:24:00;;;;;;;5.88;2.45;;;;;;;1.09;100.00;100791.25;5091750;28;20031;-87
2023/12/14 01:26:25;;;;;;;6.57;2.00;;;;;;;1.07;100.00;100793.81;5091603;28;20122;-87
2023/12/14 01:28:51;;;;;;;5.78;1.95;;;;;;;1.09;100.00;100794.63;5091550;28;20048;-87
2023/12/14 01:31:16;;;;;;;5.68;2.53;;;;;;;1.05;100.00;100795.56;5091803;28;20028;-88
2023/12/14 01:33:41;;;;;;;5.68;1.85;;;;;;;1.01;100.00;100799.00;5091793;28;20462;-87
2023/12/14 01:36:07;;;;;;;6.35;2.05;;;;;;;0.97;100.00;100784.63;5091684;28;20034;-87
2023/12/14 01:38:33;;;;;;;4.53;2.25;;;;;;;0.99;100.00;100788.00;5091782;28;20066;-87
2023/12/14 01:40:59;;;;;;;6.47;2.20;;;;;;;0.99;100.00;100782.91;5091506;28;20032;-88
2023/12/14 01:43:24;;;;;;;3.53;2.05;;;;;;;0.89;100.00;100794.06;5091783;28;20020;-87
2023/12/14 01:45:50;;;;;;;3.75;2.20;;;;;;;0.90;100.00;100793.19;5091155;28;20039;-87
2023/12/14 01:48:15;;;;;;;9.10;2.80;;;;;;;0.94;100.00;100794.84;5091761;28;20024;-87
2023/12/14 01:50:40;;;;;;;7.25;2.47;;;;;;;0.89;100.00;100799.97;5091956;28;20141;-87
2023/12/14 01:53:06;;;;;;;7.85;2.20;;;;;;;0.92;100.00;100805.00;5091800;28;20020;-88
2023/12/14 01:55:31;;;;;;;5.05;2.08;;;;;;;1.00;100.00;100787.13;5091419;28;20061;-88
2023/12/14 01:57:56;;;;;;;7.93;2.60;;;;;;;0.99;100.00;100788.84;5091700;28;20477;-87
2023/12/14 02:00:49;;;;;;;6.65;2.47;;;;;;;1.04;100.00;100786.22;5091360;28;20036;-87
2023/12/14 02:03:16;;;;;;;7.45;2.20;;;;;;;0.96;100.00;100788.03;5083032;28;20051;-87
2023/12/14 02:05:41;;;;;;;4.15;2.13;;;;;;;1.11;100.00;100782.75;5091551;28;20527;-87
2023/12/14 02:08:07;;;;;;;4.45;2.45;;;;;;;1.13;100.00;100785.28;5091542;28;20032;-88
2023/12/14 02:10:32;;;;;;;4.35;2.63;;;;;;;1.09;100.00;100779.38;5091532;28;20021;-88
2023/12/14 02:12:58;;;;;;;7.32;2.45;;;;;;;1.05;100.00;100777.78;5091567;28;20028;-88
2023/12/14 02:15:23;;;;;;;9.52;2.30;;;;;;;1.21;100.00;100779.22;5091354;28;20031;-87
2023/12/14 02:17:48;;;;;;;6.15;2.50;;;;;;;1.30;100.00;100785.91;5091544;28;20507;-88
2023/12/14 02:20:14;;;;;;;8.90;2.63;;;;;;;1.18;100.00;100786.91;5092608;28;20539;-88
2023/12/14 02:22:55;;;;;;;6.30;2.10;;;;;;;0.92;100.00;100801.63;5095114;28;20112;-88
2023/12/14 02:25:22;;;;;;;5.18;2.25;;;;;;;0.99;100.00;100801.53;5095458;28;20385;-88
2023/12/14 02:27:50;;;;;;;7.35;2.50;;;;;;;1.13;100.00;100806.47;5095651;28;20042;-88
2023/12/14 02:30:16;;;;;;;7.97;2.22;;;;;;;1.23;100.00;100802.94;5094940;28;20486;-88
2023/12/14 02:32:41;;;;;;;4.30;1.88;;;;;;;1.29;100.00;100812.16;5095330;28;20555;-88
2023/12/14 02:35:08;;;;;;;6.55;1.90;;;;;;;1.33;100.00;100808.75;5093336;28;20024;-88
2023/12/14 02:37:34;;;;;;;3.33;1.77;;;;;;;1.41;100.00;100811.16;5091861;28;20055;-88
2023/12/14 02:40:00;;;;;;;9.82;3.55;;;;;;;1.44;100.00;100816.22;5074691;28;20101;-89
2023/12/14 02:42:26;;;;;;;6.35;2.30;;;;;;;1.42;100.00;100826.44;5094043;28;20460;-88
2023/12/14 02:44:52;;;;;;;9.88;5.00;;;;;;;1.52;100.00;100822.06;5093653;28;20115;-88
2023/12/14 02:47:18;;;;;;;5.47;2.15;;;;;;;1.52;100.00;100834.78;5094700;28;20055;-88
2023/12/14 02:49:44;;;;;;;4.50;2.30;;;;;;;1.48;100.00;100828.03;5094027;28;20058;-88
2023/12/14 02:52:09;;;;;;;6.68;2.20;;;;;;;1.55;100.00;100828.78;5092925;28;20035;-88
2023/12/14 02:54:34;;;;;;;4.15;2.03;;;;;;;1.62;100.00;100836.31;5084626;28;20032;-88
2023/12/14 02:57:00;;;;;;;6.50;2.30;;;;;;;1.64;100.00;100833.75;5074075;28;20028;-88
2023/12/14 02:59:25;;;;;;;3.90;1.50;;;;;;;1.57;100.00;100844.88;5081439;28;20475;-88
2023/12/14 03:01:50;;;;;;;4.28;2.60;;;;;;;1.59;100.00;100844.00;5094563;28;20566;-88
2023/12/14 03:04:16;;;;;;;3.58;1.40;;;;;;;1.61;100.00;100844.81;5094294;28;20028;-88
2023/12/14 03:06:41;;;;;;;7.32;2.17;;;;;;;1.68;100.00;100843.88;5094297;28;20478;-88
2023/12/14 03:09:06;;;;;;;4.35;1.90;;;;;;;1.74;100.00;100850.56;5094436;28;20054;-89
2023/12/14 03:11:32;;;;;;;3.10;1.50;;;;;;;1.71;100.00;100841.28;5094522;28;20066;-88
2023/12/14 03:13:57;;;;;;;6.07;1.63;;;;;;;1.80;100.00;100842.00;5091942;28;20020;-88
2023/12/14 03:16:22;;;;;;;3.58;1.60;;;;;;;1.81;100.00;100842.00;5093332;28;20036;-88
2023/12/14 03:18:52;;;;;;;5.22;1.65;;;;;;;1.88;100.00;100835.09;5093734;28;20490;-88
2023/12/14 03:21:17;;;;;;;4.28;1.50;;;;;;;1.88;100.00;100833.41;5094076;28;20052;-88
2023/12/14 03:23:43;;;;;;;9.57;1.80;;;;;;;1.89;100.00;100829.97;5093818;28;20023;-88
2023/12/14 03:26:08;;;;;;;7.60;1.52;;;;;;;1.95;100.00;100828.19;5093773;28;20030;-88
2023/12/14 03:28:34;;;;;;;5.25;1.75;;;;;;;1.97;100.00;100816.28;5093890;28;20024;-88
2023/12/14 03:31:00;;;;;;;7.15;1.73;;;;;;;2.03;100.00;100818.75;5092747;28;20020;-88
2023/12/14 03:33:25;;;;;;;7.93;1.92;;;;;;;2.05;100.00;100810.22;5093035;28;20413;-88
2023/12/14 03:35:50;;;;;;;3.03;1.45;;;;;;;2.04;100.00;100803.44;5093697;28;20020;-88
2023/12/14 03:38:16;;;;;;;4.75;2.28;;;;;;;1.93;100.00;100821.44;5093850;28;20019;-88
2023/12/14 03:40:41;;;;;;;5.88;1.70;;;;;;;1.80;100.00;100806.38;5093507;28;20036;-88
2023/12/14 03:43:07;;;;;;;3.08;1.85;;;;;;;1.74;100.00;100811.56;5093619;28;20078;-88
2023/12/14 03:45:32;;;;;;;4.95;1.95;;;;;;;1.71;100.00;100813.28;5093376;28;20020;-88
2023/12/14 03:47:58;;;;;;;2.97;1.40;;;;;;;1.85;100.00;100812.22;5093810;28;20028;-87
2023/12/14 03:50:23;;;;;;;9.05;2.38;;;;;;;2.00;100.00;100806.91;5093171;28;20115;-88
2023/12/14 03:52:49;;;;;;;4.00;1.45;;;;;;;2.06;100.00;100799.16;5093607;28;20395;-88
2023/12/14 03:55:15;;;;;;;7.68;2.05;;;;;;;2.14;100.00;100802.41;5093263;28;20081;-88
2023/12/14 03:57:40;;;;;;;3.90;1.90;;;;;;;2.21;100.00;100797.22;5093464;28;20027;-88
2023/12/14 04:00:09;;;;;;;10.45;1.85;;;;;;;2.20;100.00;100805.75;5092786;28;20024;-88
2023/12/14 04:02:35;;;;;;;4.30;1.65;;;;;;;2.31;100.00;100816.56;5091591;28;20020;-88
2023/12/14 04:05:00;;;;;;;4.25;1.30;;;;;;;2.36;100.00;100804.59;5093056;28;20039;-88
2023/12/14 04:07:25;;;;;;;7.25;1.60;;;;;;;2.45;100.00;100811.25;5092840;28;20035;-88
2023/12/14 04:09:51;;;;;;;4.07;1.70;;;;;;;2.48;100.00;100813.72;5092820;28;20516;-88
2023/12/14 04:12:16;;;;;;;6.50;1.60;;;;;;;2.50;100.00;100815.38;5093132;28;20032;-88
2023/12/14 04:14:41;;;;;;;6.18;1.83;;;;;;;2.47;100.00;100818.00;5092967;28;20024;-87
2023/12/14 04:17:07;;;;;;;5.03;1.90;;;;;;;2.35;100.00;100821.59;5093112;28;20019;-88
2023/12/14 04:19:32;;;;;;;7.25;2.38;;;;;;;2.29;100.00;100825.94;5092943;28;20020;-88
2023/12/14 04:21:58;;;;;;;6.20;2.28;;;;;;;2.43;100.00;100815.53;5092981;28;20438;-88
2023/12/14 04:24:23;;;;;;;6.28;2.15;;;;;;;2.50;100.00;100812.84;5092764;28;20090;-88
2023/12/14 04:26:49;;;;;;;4.22;1.70;;;;;;;2.54;100.00;100814.47;5092817;28;20034;-87
2023/12/14 04:29:14;;;;;;;5.40;2.20;;;;;;;2.64;100.00;100822.78;5092889;28;20381;-88
2023/12/14 04:31:39;;;;;;;10.35;2.65;;;;;;;2.70;100.00;100819.28;5092900;28;20536;-88
2023/12/14 04:34:05;;;;;;;3.83;2.28;;;;;;;2.72;100.00;100820.09;5092615;28;20067;-88
2023/12/14 04:36:30;;;;;;;4.78;2.05;;;;;;;2.78;100.00;100825.09;5092792;28;20031;-88
2023/12/14 04:38:55;;;;;;;8.27;2.25;;;;;;;2.80;100.00;100820.75;5092877;28;20024;-88
2023/12/14 04:41:21;;;;;;;5.13;2.30;;;;;;;2.86;100.00;100815.56;5092714;28;20028;-87
2023/12/14 04:43:46;;;;;;;6.95;2.35;;;;;;;2.89;100.00;100807.00;5091642;28;20024;-87
2023/12/14 04:46:11;;;;;;;5.30;2.38;;;;;;;2.88;100.00;100803.63;5091843;28;20618;-87
2023/12/14 04:48:37;;;;;;;8.57;2.67;;;;;;;2.92;100.00;100822.25;5091994;28;20469;-88
2023/12/14 04:51:02;;;;;;;7.28;1.90;;;;;;;2.97;100.00;100834.03;5092599;28;20016;-87
2023/12/14 04:53:27;;;;;;;3.97;2.15;;;;;;;2.75;100.00;100846.34;5092597;28;20028;-87
2023/12/14 04:55:53;;;;;;;8.85;2.50;;;;;;;2.64;100.00;100838.06;5092031;28;20134;-88
2023/12/14 04:58:18;;;;;;;9.40;2.13;;;;;;;2.78;100.00;100838.66;5092167;28;20055;-88
2023/12/14 05:00:43;;;;;;;6.35;2.17;;;;;;;2.87;100.00;100822.31;5092356;28;20020;-88
2023/12/14 05:03:09;;;;;;;5.03;2.35;;;;;;;2.94;100.00;100829.00;5092322;28;20043;-88
2023/12/14 05:05:34;;;;;;;7.20;2.92;;;;;;;2.95;100.00;100819.63;5091090;28;20031;-88
2023/12/14 05:08:00;;;;;;;7.22;3.45;;;;;;;3.02;100.00;100810.16;5092021;28;20036;-88
2023/12/14 05:10:25;;;;;;;5.05;2.10;;;;;;;2.99;100.00;100811.88;5092415;28;20111;-88
2023/12/14 05:12:51;;;;;;;5.53;2.58;;;;;;;3.07;100.00;100823.66;5106798;28;20481;-88
2023/12/14 05:15:16;;;;;;;5.78;1.95;;;;;;;3.08;100.00;100812.59;5112610;28;20026;-88
2023/12/14 05:17:41;;;;;;;4.38;1.90;;;;;;;3.12;100.00;100821.84;5112329;28;20034;-88
2023/12/14 05:20:10;;;;;;;9.25;3.92;;;;;;;3.25;100.00;100819.91;5112459;28;20107;-88
2023/12/14 05:22:35;;;;;;;3.58;1.90;;;;;;;3.17;100.00;100820.03;5082604;28;20024;-88
2023/12/14 05:25:01;;;;;;;8.02;2.45;;;;;;;3.21;100.00;100826.75;5092606;28;20407;-88
2023/12/14 05:27:26;;;;;;;6.05;2.45;;;;;;;3.22;100.00;100820.81;5102893;28;20027;-88
2023/12/14 05:29:52;;;;;;;6.25;2.55;;;;;;;3.31;100.00;100815.47;5089016;28;20036;-88
2023/12/14 05:32:17;;;;;;;7.13;2.28;;;;;;;3.32;100.00;100827.38;5080421;28;20021;-87
2023/12/14 05:34:42;;;;;;;4.93;2.60;;;;;;;3.36;100.00;100828.97;5091939;28;20367;-88
2023/12/14 05:37:08;;;;;;;10.35;3.72;;;;;;;3.30;100.00;100831.69;5092000;28;20474;-88
2023/12/14 05:39:33;;;;;;;6.30;2.00;;;;;;;3.33;100.00;100825.66;5091894;28;20447;-88
2023/12/14 05:41:58;;;;;;;6.68;2.13;;;;;;;3.37;100.00;100829.84;5091954;28;20178;-87
2023/12/14 05:44:25;;;;;;;4.10;2.55;;;;;;;3.35;100.00;100834.97;5091617;28;20482;-88
2023/12/14 05:46:50;;;;;;;7.55;2.83;;;;;;;3.39;100.00;100836.59;5091358;28;20077;-88
2023/12/14 05:49:15;;;;;;;11.70;2.35;;;;;;;3.40;100.00;100837.41;5091559;28;20024;-88
2023/12/14 05:51:41;;;;;;;5.55;2.30;;;;;;;3.45;100.00;100842.44;5091993;28;20050;-87
2023/12/14 05:54:06;;;;;;;5.45;2.25;;;;;;;3.48;100.00;100844.91;5091669;28;20035;-89
2023/12/14 05:56:32;;;;;;;7.38;2.30;;;;;;;3.53;100.00;100840.53;5095505;28;20225;-89
2023/12/14 05:58:57;;;;;;;4.88;2.03;;;;;;;3.52;100.00;100837.16;5095600;28;20028;-88
2023/12/14 06:01:24;;;;;;;7.22;2.13;;;;;;;3.56;100.00;100848.13;5095577;28;20021;-88
2023/12/14 06:03:50;;;;;;;5.38;2.40;;;;;;;3.56;100.00;100850.66;5095528;28;20051;-88
2023/12/14 06:06:16;;;;;;;4.53;2.15;;;;;;;3.59;100.00;100840.41;5095312;28;20108;-88
2023/12/14 06:08:41;;;;;;;4.20;2.33;;;;;;;3.62;100.00;100842.91;5095500;28;20080;-89
2023/12/14 06:11:07;;;;;;;5.72;1.80;;;;;;;3.62;100.00;100848.00;5095540;28;20035;-88
2023/12/14 06:13:33;;;;;;;6.30;1.90;;;;;;;3.66;100.00;100847.06;5095443;28;20039;-87
2023/12/14 06:15:58;;;;;;;3.95;1.73;;;;;;;3.72;100.00;100852.03;5095052;28;20111;-89
2023/12/14 06:18:24;;;;;;;6.70;1.90;;;;;;;3.70;100.00;100846.09;5095306;28;20024;-87
2023/12/14 06:20:50;;;;;;;4.97;1.77;;;;;;;3.67;100.00;100841.06;5095568;28;20031;-87
2023/12/14 06:23:15;;;;;;;6.38;1.48;;;;;;;3.73;100.00;100852.84;5095444;28;20106;-88
2023/12/14 06:25:40;;;;;;;5.00;2.40;;;;;;;3.72;100.00;100864.78;5095495;28;20036;-89
2023/12/14 06:28:06;;;;;;;3.58;1.73;;;;;;;3.69;100.00;100861.47;5097806;28;20024;-87
2023/12/14 06:30:31;;;;;;;7.78;2.15;;;;;;;3.74;100.00;100873.25;5097191;28;20066;-86
2023/12/14 06:32:56;;;;;;;6.57;2.20;;;;;;;3.73;100.00;100866.47;5097253;28;20023;-87
2023/12/14 06:35:22;;;;;;;10.38;2.92;;;;;;;3.70;100.00;100870.81;5097209;28;20028;-89
2023/12/14 06:37:47;;;;;;;15.02;2.78;;;;;;;3.67;100.00;100866.59;5100604;28;20031;-86
2023/12/14 06:40:13;;;;;;;4.68;2.30;;;;;;;3.63;100.00;100859.88;5099490;28;20050;-87
2023/12/14 06:42:39;;;;;;;5.85;2.60;;;;;;;3.65;100.00;100864.06;5099573;28;20548;-89
2023/12/14 06:45:05;;;;;;;5.80;2.55;;;;;;;3.66;100.00;100872.59;5099127;28;20089;-89
2023/12/14 06:47:30;;;;;;;6.15;2.67;;;;;;;3.71;100.00;100875.88;5099694;28;20073;-89
2023/12/14 06:49:59;;;;;;;6.10;2.50;;;;;;;3.74;100.00;100873.25;5101228;28;20713;-90
2023/12/14 06:52:24;;;;;;;8.13;2.17;;;;;;;3.70;100.00;100863.97;5101658;28;20024;-90
2023/12/14 06:54:49;;;;;;;7.45;2.85;;;;;;;3.73;100.00;100876.69;5097007;28;20074;-88
2023/12/14 06:57:15;;;;;;;11.45;5.10;;;;;;;3.76;100.00;100873.22;5097961;28;20028;-89
2023/12/14 06:59:40;;;;;;;12.35;3.15;;;;;;;3.77;100.00;100873.19;5100533;28;20114;-88
2023/12/14 07:02:06;;;;;;;6.82;2.85;;;;;;;3.77;100.00;100875.72;5101152;28;20020;-88
2023/12/14 07:04:31;;;;;;;9.02;2.70;;;;;;;3.80;100.00;100877.38;5100044;28;20114;-89
2023/12/14 07:06:56;;;;;;;8.15;2.20;;;;;;;3.79;100.00;100875.72;5097609;28;20027;-88
2023/12/14 07:09:22;;;;;;;4.32;2.15;;;;;;;3.88;100.00;100882.31;5096969;28;20473;-87
2023/12/14 07:11:47;;;;;;;6.82;1.98;;;;;;;3.84;100.00;100882.38;5096506;28;20066;-87
2023/12/14 07:14:14;;;;;;;10.57;2.20;;;;;;;3.84;100.00;100887.50;5096240;28;20494;-87
2023/12/14 07:16:40;;;;;;;10.63;2.45;;;;;;;3.86;100.00;100893.41;5097432;28;20028;-87
2023/12/14 07:19:06;;;;;;;10.18;2.00;;;;;;;3.90;100.00;100888.22;5096007;28;20386;-87
2023/12/14 07:21:31;;;;;;;6.57;2.15;;;;;;;3.96;100.00;100893.19;5097273;28;20024;-87
2023/12/14 07:23:56;;;;;;;9.45;2.20;;;;;;;3.93;100.00;100885.63;5097327;28;20107;-87
2023/12/14 07:26:22;;;;;;;7.35;2.13;;;;;;;3.95;100.00;100886.41;5098724;28;20028;-87
2023/12/14 07:28:47;;;;;;;7.63;2.30;;;;;;;4.00;100.00;100897.34;5098299;28;20020;-87
2023/12/14 07:31:12;;;;;;;7.30;2.30;;;;;;;4.03;100.00;100894.75;5098478;28;20058;-87
2023/12/14 07:33:38;;;;;;;8.05;2.50;;;;;;;4.01;100.00;100901.59;5095405;28;20062;-87
2023/12/14 07:36:05;;;;;;;8.30;2.97;;;;;;;4.06;100.00;100904.88;5094669;28;20035;-89
2023/12/14 07:38:30;;;;;;;8.07;2.72;;;;;;;4.06;100.00;100900.59;5094400;28;20024;-87
2023/12/14 07:40:56;;;;;;;3.70;1.90;;;;;;;4.11;100.00;100892.00;5094339;28;20081;-87
2023/12/14 07:43:21;;;;;;;9.80;3.55;;;;;;;4.07;100.00;100891.22;5094316;28;20028;-87
2023/12/14 07:45:47;;;;;;;4.80;2.35;;;;;;;4.10;100.00;100901.41;5094383;28;20032;-87
2023/12/14 07:48:12;;;;;;;8.40;2.03;;;;;;;4.09;100.00;100899.69;5093364;28;20385;-87
2023/12/14 07:50:38;;;;;;;9.13;2.70;;;;;;;4.11;100.00;100900.50;5094778;28;20035;-88
2023/12/14 07:53:04;;;;;;;7.68;2.22;;;;;;;4.11;100.00;100904.78;5094198;28;20382;-89
2023/12/14 07:55:30;;;;;;;11.73;2.58;;;;;;;4.16;100.00;100903.78;5092819;28;20051;-89
2023/12/14 07:57:55;;;;;;;12.20;3.15;;;;;;;4.14;100.00;100910.66;5093986;28;20032;-88
2023/12/14 08:00:20;;;;;;;10.07;3.10;;;;;;;4.16;100.00;100911.44;5093534;28;20024;-88
2023/12/14 08:02:46;;;;;;;8.00;3.00;;;;;;;4.15;100.00;100920.00;5090016;28;20166;-89
2023/12/14 08:05:11;;;;;;;4.88;2.78;;;;;;;4.17;100.00;100923.38;5090528;28;20031;-88
2023/12/14 08:07:37;;;;;;;5.80;2.42;;;;;;;4.19;100.00;100911.38;5093214;28;20496;-89
2023/12/14 08:10:03;;;;;;;8.65;2.72;;;;;;;4.22;100.00;100913.88;5091625;28;20271;-88
2023/12/14 08:12:28;;;;;;;10.77;2.95;;;;;;;4.13;100.00;100903.88;5088444;28;20020;-88
2023/12/14 08:14:54;;;;;;;10.55;3.50;;;;;;;4.16;100.00;100911.44;5092573;28;20135;-87
2023/12/14 08:17:19;;;;;;;9.52;3.20;;;;;;;4.24;100.00;100903.59;5087578;28;20111;-88
2023/12/14 08:19:45;;;;;;;10.30;3.10;;;;;;;4.24;100.00;100911.28;5090877;28;20032;-89
2023/12/14 08:22:12;;;;;;;11.00;3.17;;;;;;;4.25;100.00;100916.34;5093361;28;20035;-88
2023/12/14 08:24:40;;;;;;;8.25;3.53;;;;;;;4.31;100.00;100917.91;5093174;28;20078;-89
2023/12/14 08:27:06;;;;;;;11.10;3.20;;;;;;;4.31;100.00;100911.97;5093169;28;20031;-88
2023/12/14 08:29:31;;;;;;;9.35;3.30;;;;;;;4.39;100.00;100917.72;5092686;28;20028;-87
2023/12/14 08:31:58;;;;;;;7.80;3.15;;;;;;;4.41;100.00;100908.31;5092402;28;20026;-87
2023/12/14 08:34:25;;;;;;;5.53;3.08;;;;;;;4.43;100.00;100909.13;5093246;28;20020;-88
2023/12/14 08:36:50;;;;;;;10.13;2.80;;;;;;;4.48;100.00;100904.72;5093395;28;20478;-88
2023/12/14 08:39:16;;;;;;;9.80;3.03;;;;;;;4.52;100.00;100903.78;5092793;28;20031;-88
2023/12/14 08:41:41;;;;;;;5.57;2.75;;;;;;;4.55;100.00;100902.88;5093234;28;20038;-88
2023/12/14 08:44:08;;;;;;;6.75;2.53;;;;;;;4.57;100.00;100901.94;5092040;28;20111;-89
2023/12/14 08:46:41;;;;;;;5.75;2.40;;;;;;;4.66;100.00;100914.50;5092059;28;20074;-89
2023/12/14 08:49:07;;;;;;;6.40;2.55;;;;;;;4.69;100.00;100899.09;5093001;28;20058;-88
2023/12/14 08:51:32;;;;;;;5.50;2.10;;;;;;;4.75;100.00;100908.31;5092694;28;20028;-89
2023/12/14 08:53:58;;;;;;;7.97;2.25;;;;;;;4.82;100.00;100911.56;5092898;28;20020;-88
2023/12/14 08:56:23;;;;;;;6.63;2.00;;;;;;;4.87;100.00;100909.72;5092919;28;20106;-89
2023/12/14 08:58:48;;;;;;;5.93;2.30;;;;;;;4.87;100.00;100905.44;5092619;28;20485;-88
2023/12/14 09:01:22;;;;;;;8.70;3.10;;;;;;;5.00;100.00;100911.06;5087907;28;20529;-88
2023/12/14 09:03:48;;;;;;;11.43;2.60;;;;;;;5.09;100.00;100894.63;5087938;28;20450;-88
2023/12/14 09:06:14;;;;;;;10.23;2.08;;;;;;;5.12;100.00;100908.19;5087618;28;20035;-87
2023/12/14 09:08:40;;;;;;;3.92;2.22;;;;;;;5.17;100.00;100900.38;5087861;28;20103;-87
2023/12/14 09:11:06;;;;;;;7.35;2.35;;;;;;;5.35;100.00;100911.81;5092460;28;20069;-86
2023/12/14 09:13:31;;;;;;;5.88;2.00;;;;;;;5.38;100.00;100905.78;5092719;28;20032;-87
2023/12/14 09:15:57;;;;;;;5.28;2.05;;;;;;;5.47;100.00;100900.41;5091524;28;20028;-87
2023/12/14 09:18:23;;;;;;;5.30;1.58;;;;;;;5.62;100.00;100888.88;5092253;28;20086;-87
2023/12/14 09:20:51;;;;;;;4.32;1.90;;;;;;;5.81;100.00;100899.41;5092315;28;20319;-87
2023/12/14 09:23:18;;;;;;;7.97;2.28;;;;;;;5.90;100.00;100906.78;5092507;28;20390;-87
2023/12/14 09:25:44;;;;;;;12.07;1.90;;;;;;;5.88;100.00;100917.09;5092177;28;20028;-88
2023/12/14 09:28:10;;;;;;;9.02;1.92;;;;;;;5.94;100.00;100921.22;5091791;28;20036;-87
2023/12/14 09:30:35;;;;;;;6.03;2.05;;;;;;;5.94;100.00;100922.06;5090990;28;20063;-87
2023/12/14 09:33:00;;;;;;;7.20;2.03;;;;;;;5.95;100.00;100918.63;5092229;28;20111;-89
2023/12/14 09:35:26;;;;;;;5.07;1.80;;;;;;;5.94;100.00;100922.06;5092043;28;20107;-88
2023/12/14 09:37:52;;;;;;;3.83;2.20;;;;;;;5.98;100.00;100925.38;5092225;28;20258;-87
2023/12/14 09:40:18;;;;;;;6.13;2.20;;;;;;;6.03;100.00;100925.25;5091953;28;20059;-88
2023/12/14 09:42:44;;;;;;;5.55;1.80;;;;;;;6.08;100.00;100924.22;5092392;28;20024;-88
2023/12/14 09:45:10;;;;;;;6.50;1.55;;;;;;;6.14;100.00;100931.69;5091548;28;20026;-88
2023/12/14 09:47:36;;;;;;;8.27;1.50;;;;;;;6.15;100.00;100933.38;5091705;28;20024;-86
2023/12/14 09:50:03;;;;;;;7.05;2.03;;;;;;;6.25;100.00;100936.50;5090727;28;20032;-87
2023/12/14 09:52:29;;;;;;;5.70;1.50;;;;;;;6.21;100.00;100937.47;5092051;28;20038;-87
2023/12/14 09:54:54;;;;;;;28.00;4.78;;;;;;;6.35;100.00;100937.88;5091859;28;20107;-86
2023/12/14 09:57:20;;;;;;;20.60;2.78;;;;;;;6.39;100.00;100939.47;5091989;28;20020;-86
2023/12/14 09:59:54;;;;;;;7.30;2.15;;;;;;;6.38;100.00;100948.03;5090189;28;20016;-87
2023/12/14 10:02:24;;;;;;;16.42;2.33;;;;;;;6.39;100.00;100946.31;5091005;28;20032;-87
2023/12/14 10:04:50;;;;;;;17.38;3.20;;;;;;;6.40;100.00;100946.25;5092007;28;20032;-87
2023/12/14 10:07:16;;;;;;;10.32;1.67;;;;;;;6.42;100.00;100951.34;5091814;28;20035;-87
2023/12/14 10:09:42;;;;;;;10.63;1.55;;;;;;;6.56;100.00;100956.88;5091417;28;20062;-88
2023/12/14 10:12:09;;;;;;;9.98;1.58;;;;;;;6.54;100.00;100962.94;5091528;28;20038;-87
2023/12/14 10:14:36;;;;;;;7.85;1.55;;;;;;;6.52;100.00;100969.84;5092651;28;20503;-89
2023/12/14 10:17:31;;;;;;;5.22;1.05;;;;;;;6.57;100.00;100973.09;5090741;28;20067;-88
2023/12/14 10:19:56;;;;;;;3.90;1.30;;;;;;;6.65;100.00;100986.50;5071364;28;20020;-87
2023/12/14 10:22:22;;;;;;;6.68;1.30;;;;;;;6.70;100.00;100976.09;5071190;28;20028;-87
2023/12/14 10:24:47;;;;;;;8.07;1.27;;;;;;;6.74;100.00;100985.38;5071192;28;20032;-88
2023/12/14 10:27:16;;;;;;;6.57;1.42;;;;;;;6.74;100.00;100986.22;5071033;28;20032;-88
2023/12/14 10:29:44;;;;;;;14.35;1.70;;;;;;;6.77;100.00;100982.69;5071298;28;20032;-88
2023/12/14 10:32:11;;;;;;;7.10;1.38;;;;;;;6.81;100.00;100984.28;5084222;28;20034;-88
2023/12/14 10:34:37;;;;;;;2.45;1.05;;;;;;;6.89;100.00;100986.59;5089914;28;20024;-88
2023/12/14 10:37:06;;;;;;;3.78;1.20;;;;;;;6.96;100.00;100985.50;5091119;28;20081;-87
2023/12/14 10:39:35;;;;;;;2.78;1.27;;;;;;;7.04;100.00;100989.47;5090728;28;20017;-88
2023/12/14 10:42:03;;;;;;;5.82;1.40;;;;;;;7.02;100.00;100991.28;5091878;28;20120;-88
2023/12/14 10:44:32;;;;;;;5.82;1.38;;;;;;;7.03;100.00;100989.53;5094718;28;20025;-90
2023/12/14 10:46:58;;;;;;;5.88;1.30;;;;;;;7.01;100.00;100993.88;5094468;28;20024;-88
2023/12/14 10:49:28;;;;;;;5.78;1.77;;;;;;;7.15;100.00;100996.81;5094547;28;20066;-87
2023/12/14 10:51:56;;;;;;;4.65;1.60;;;;;;;7.25;100.00;100998.16;5094733;28;20126;-88
2023/12/14 10:54:26;;;;;;;4.55;1.38;;;;;;;7.27;100.00;100996.41;5094501;28;20020;-89
2023/12/14 10:56:56;;;;;;;2.60;1.02;;;;;;;7.35;100.00;101003.00;5094647;28;20028;-88
2023/12/14 10:59:21;;;;;;;4.68;1.25;;;;;;;7.38;100.00;101008.84;5093972;28;20024;-88
2023/12/14 11:01:53;;;;;;;6.07;1.35;;;;;;;7.44;100.00;101008.66;5093096;28;20530;-88
2023/12/14 11:04:19;;;;;;;5.35;1.33;;;;;;;7.45;100.00;101002.59;5092778;28;20024;-89
2023/12/14 11:06:48;;;;;;;4.03;1.30;;;;;;;7.50;100.00;101008.41;5093077;28;20410;-89
2023/12/14 11:09:15;;;;;;;2.58;1.10;;;;;;;7.56;100.00;101007.38;5094365;28;20024;-89
2023/12/14 11:11:53;;;;;;;6.70;1.50;;;;;;;7.60;100.00;101016.63;5094397;28;20024;-87
2023/12/14 11:14:19;;;;;;;4.18;1.20;;;;;;;7.66;100.00;101015.59;5093369;28;20055;-88
2023/12/14 11:16:46;;;;;;;2.55;1.20;;;;;;;7.68;100.00;101006.94;5093941;28;20101;-88
2023/12/14 11:19:24;;;;;;;4.25;1.02;;;;;;;7.79;100.00;101013.41;5093700;28;20031;-88